sensor_id;sensor_type;location;lat;lon;timestamp;temperature;humidity
67275;DHT22;55463;52.324;5.122;2022-09-02T00:00:52;16.97;58.47
67275;DHT22;55463;52.324;5.122;2022-09-02T00:03:18;16.97;58.49
67275;DHT22;55463;52.324;5.122;2022-09-02T00:05:44;16.85;58.71
67275;DHT22;55463;52.324;5.122;2022-09-02T00:08:10;16.83;58.76
67275;DHT22;55463;52.324;5.122;2022-09-02T00:10:38;16.88;58.42
67275;DHT22;55463;52.324;5.122;2022-09-02T00:13:06;16.77;58.71
67275;DHT22;55463;52.324;5.122;2022-09-02T00:15:32;16.79;58.88
67275;DHT22;55463;52.324;5.122;2022-09-02T00:17:59;16.80;58.80
67275;DHT22;55463;52.324;5.122;2022-09-02T00:20:24;16.72;59.21
67275;DHT22;55463;52.324;5.122;2022-09-02T00:22:50;16.65;59.40
67275;DHT22;55463;52.324;5.122;2022-09-02T00:25:15;16.63;59.24
67275;DHT22;55463;52.324;5.122;2022-09-02T00:27:41;16.55;59.55
67275;DHT22;55463;52.324;5.122;2022-09-02T00:30:07;16.55;59.55
67275;DHT22;55463;52.324;5.122;2022-09-02T00:32:32;16.51;59.47
67275;DHT22;55463;52.324;5.122;2022-09-02T00:34:58;16.42;60.16
67275;DHT22;55463;52.324;5.122;2022-09-02T00:37:24;16.51;60.18
67275;DHT22;55463;52.324;5.122;2022-09-02T00:39:50;16.42;60.71
67275;DHT22;55463;52.324;5.122;2022-09-02T00:42:19;16.44;60.59
67275;DHT22;55463;52.324;5.122;2022-09-02T00:44:44;16.35;60.70
67275;DHT22;55463;52.324;5.122;2022-09-02T00:47:10;16.41;60.55
67275;DHT22;55463;52.324;5.122;2022-09-02T00:49:38;16.20;61.19
67275;DHT22;55463;52.324;5.122;2022-09-02T00:52:10;16.25;61.44
67275;DHT22;55463;52.324;5.122;2022-09-02T00:54:44;16.17;62.30
67275;DHT22;55463;52.324;5.122;2022-09-02T00:57:13;16.12;62.88
67275;DHT22;55463;52.324;5.122;2022-09-02T01:02:56;16.14;63.97
67275;DHT22;55463;52.324;5.122;2022-09-02T01:05:24;16.12;64.57
67275;DHT22;55463;52.324;5.122;2022-09-02T01:07:51;16.22;64.24
67275;DHT22;55463;52.324;5.122;2022-09-02T01:10:22;16.21;64.46
67275;DHT22;55463;52.324;5.122;2022-09-02T01:12:48;16.20;64.67
67275;DHT22;55463;52.324;5.122;2022-09-02T01:15:14;16.17;64.96
67275;DHT22;55463;52.324;5.122;2022-09-02T01:17:42;16.24;65.17
67275;DHT22;55463;52.324;5.122;2022-09-02T01:20:12;16.20;65.07
67275;DHT22;55463;52.324;5.122;2022-09-02T01:22:40;16.18;65.19
67275;DHT22;55463;52.324;5.122;2022-09-02T01:25:10;16.20;65.10
67275;DHT22;55463;52.324;5.122;2022-09-02T01:27:37;16.07;65.72
67275;DHT22;55463;52.324;5.122;2022-09-02T01:30:04;16.11;65.44
67275;DHT22;55463;52.324;5.122;2022-09-02T01:32:30;16.08;65.31
67275;DHT22;55463;52.324;5.122;2022-09-02T01:34:56;16.14;65.11
67275;DHT22;55463;52.324;5.122;2022-09-02T01:37:22;16.18;65.04
67275;DHT22;55463;52.324;5.122;2022-09-02T01:39:48;16.17;65.55
67275;DHT22;55463;52.324;5.122;2022-09-02T01:42:17;16.20;65.84
67275;DHT22;55463;52.324;5.122;2022-09-02T01:44:43;16.14;66.10
67275;DHT22;55463;52.324;5.122;2022-09-02T01:47:21;16.15;66.07
67275;DHT22;55463;52.324;5.122;2022-09-02T01:49:47;16.17;65.89
67275;DHT22;55463;52.324;5.122;2022-09-02T01:52:14;16.12;65.97
67275;DHT22;55463;52.324;5.122;2022-09-02T01:54:39;16.20;65.64
67275;DHT22;55463;52.324;5.122;2022-09-02T01:57:05;16.08;66.26
67275;DHT22;55463;52.324;5.122;2022-09-02T01:59:31;16.12;66.18
67275;DHT22;55463;52.324;5.122;2022-09-02T02:01:56;16.05;65.98
67275;DHT22;55463;52.324;5.122;2022-09-02T02:04:21;16.03;66.21
67275;DHT22;55463;52.324;5.122;2022-09-02T02:06:49;16.00;66.11
67275;DHT22;55463;52.324;5.122;2022-09-02T02:09:15;16.01;66.43
67275;DHT22;55463;52.324;5.122;2022-09-02T02:11:42;15.96;66.65
67275;DHT22;55463;52.324;5.122;2022-09-02T02:14:07;15.90;66.87
67275;DHT22;55463;52.324;5.122;2022-09-02T02:16:33;15.91;66.70
67275;DHT22;55463;52.324;5.122;2022-09-02T02:18:58;15.94;66.66
67275;DHT22;55463;52.324;5.122;2022-09-02T02:21:24;15.93;66.38
67275;DHT22;55463;52.324;5.122;2022-09-02T02:23:49;15.96;66.28
67275;DHT22;55463;52.324;5.122;2022-09-02T02:26:15;15.90;66.59
67275;DHT22;55463;52.324;5.122;2022-09-02T02:28:41;15.91;66.13
67275;DHT22;55463;52.324;5.122;2022-09-02T02:31:07;16.03;65.58
67275;DHT22;55463;52.324;5.122;2022-09-02T02:33:33;16.01;65.96
67275;DHT22;55463;52.324;5.122;2022-09-02T02:36:00;16.01;65.56
67275;DHT22;55463;52.324;5.122;2022-09-02T02:38:25;16.08;65.76
67275;DHT22;55463;52.324;5.122;2022-09-02T02:40:54;16.04;66.13
67275;DHT22;55463;52.324;5.122;2022-09-02T02:43:22;15.94;66.31
67275;DHT22;55463;52.324;5.122;2022-09-02T02:45:47;15.94;66.30
67275;DHT22;55463;52.324;5.122;2022-09-02T02:48:13;15.90;66.59
67275;DHT22;55463;52.324;5.122;2022-09-02T02:50:38;15.96;66.36
67275;DHT22;55463;52.324;5.122;2022-09-02T02:53:04;15.86;66.84
67275;DHT22;55463;52.324;5.122;2022-09-02T02:55:29;15.86;66.65
67275;DHT22;55463;52.324;5.122;2022-09-02T02:57:55;15.83;66.36
67275;DHT22;55463;52.324;5.122;2022-09-02T03:00:26;15.86;66.58
67275;DHT22;55463;52.324;5.122;2022-09-02T03:02:58;15.80;66.43
67275;DHT22;55463;52.324;5.122;2022-09-02T03:05:25;15.80;66.80
67275;DHT22;55463;52.324;5.122;2022-09-02T03:07:50;15.84;66.68
67275;DHT22;55463;52.324;5.122;2022-09-02T03:10:16;15.82;66.75
67275;DHT22;55463;52.324;5.122;2022-09-02T03:12:41;15.77;67.04
67275;DHT22;55463;52.324;5.122;2022-09-02T03:15:11;15.79;67.28
67275;DHT22;55463;52.324;5.122;2022-09-02T03:17:37;15.77;67.24
67275;DHT22;55463;52.324;5.122;2022-09-02T03:20:03;15.80;66.87
67275;DHT22;55463;52.324;5.122;2022-09-02T03:22:29;15.76;66.93
67275;DHT22;55463;52.324;5.122;2022-09-02T03:24:55;15.71;67.33
67275;DHT22;55463;52.324;5.122;2022-09-02T03:27:20;15.71;67.10
67275;DHT22;55463;52.324;5.122;2022-09-02T03:29:45;15.74;66.74
67275;DHT22;55463;52.324;5.122;2022-09-02T03:32:11;15.74;66.97
67275;DHT22;55463;52.324;5.122;2022-09-02T03:34:37;15.77;66.80
67275;DHT22;55463;52.324;5.122;2022-09-02T03:37:02;15.71;67.47
67275;DHT22;55463;52.324;5.122;2022-09-02T03:39:27;15.69;67.57
67275;DHT22;55463;52.324;5.122;2022-09-02T03:41:53;15.70;67.17
67275;DHT22;55463;52.324;5.122;2022-09-02T03:44:19;15.67;67.01
67275;DHT22;55463;52.324;5.122;2022-09-02T03:46:45;15.70;67.09
67275;DHT22;55463;52.324;5.122;2022-09-02T03:49:10;15.65;66.38
67275;DHT22;55463;52.324;5.122;2022-09-02T03:51:41;15.58;67.01
67275;DHT22;55463;52.324;5.122;2022-09-02T03:54:07;15.67;67.07
67275;DHT22;55463;52.324;5.122;2022-09-02T03:56:34;15.66;66.99
67275;DHT22;55463;52.324;5.122;2022-09-02T03:58:59;15.62;67.03
67275;DHT22;55463;52.324;5.122;2022-09-02T04:01:25;15.60;67.50
67275;DHT22;55463;52.324;5.122;2022-09-02T04:03:51;15.56;67.67
67275;DHT22;55463;52.324;5.122;2022-09-02T04:06:19;15.59;67.32
67275;DHT22;55463;52.324;5.122;2022-09-02T04:08:45;15.58;67.09
67275;DHT22;55463;52.324;5.122;2022-09-02T04:11:13;15.67;66.81
67275;DHT22;55463;52.324;5.122;2022-09-02T04:13:40;15.63;66.83
67275;DHT22;55463;52.324;5.122;2022-09-02T04:16:10;15.63;66.67
67275;DHT22;55463;52.324;5.122;2022-09-02T04:18:36;15.69;67.02
67275;DHT22;55463;52.324;5.122;2022-09-02T04:21:02;15.59;66.64
67275;DHT22;55463;52.324;5.122;2022-09-02T04:23:28;15.60;66.74
67275;DHT22;55463;52.324;5.122;2022-09-02T04:25:53;15.66;66.04
67275;DHT22;55463;52.324;5.122;2022-09-02T04:28:20;15.66;66.36
67275;DHT22;55463;52.324;5.122;2022-09-02T04:30:45;15.67;66.52
67275;DHT22;55463;52.324;5.122;2022-09-02T04:33:10;15.67;66.18
67275;DHT22;55463;52.324;5.122;2022-09-02T04:35:40;15.66;65.83
67275;DHT22;55463;52.324;5.122;2022-09-02T04:38:06;15.73;65.50
67275;DHT22;55463;52.324;5.122;2022-09-02T04:40:32;15.66;65.99
67275;DHT22;55463;52.324;5.122;2022-09-02T04:42:57;15.62;66.72
67275;DHT22;55463;52.324;5.122;2022-09-02T04:45:22;15.67;66.50
67275;DHT22;55463;52.324;5.122;2022-09-02T04:47:48;15.70;66.56
67275;DHT22;55463;52.324;5.122;2022-09-02T04:50:13;15.69;66.39
67275;DHT22;55463;52.324;5.122;2022-09-02T04:52:39;15.69;65.95
67275;DHT22;55463;52.324;5.122;2022-09-02T04:55:04;15.67;66.63
67275;DHT22;55463;52.324;5.122;2022-09-02T04:57:31;15.69;66.51
67275;DHT22;55463;52.324;5.122;2022-09-02T04:59:57;15.70;66.51
67275;DHT22;55463;52.324;5.122;2022-09-02T05:02:22;15.74;66.44
67275;DHT22;55463;52.324;5.122;2022-09-02T05:04:47;15.73;66.44
67275;DHT22;55463;52.324;5.122;2022-09-02T05:07:13;15.67;67.00
67275;DHT22;55463;52.324;5.122;2022-09-02T05:09:40;15.71;66.42
67275;DHT22;55463;52.324;5.122;2022-09-02T05:12:06;15.70;66.64
67275;DHT22;55463;52.324;5.122;2022-09-02T05:14:32;15.73;65.96
67275;DHT22;55463;52.324;5.122;2022-09-02T05:16:57;15.83;66.07
67275;DHT22;55463;52.324;5.122;2022-09-02T05:19:24;15.80;65.74
67275;DHT22;55463;52.324;5.122;2022-09-02T05:21:51;15.77;65.69
67275;DHT22;55463;52.324;5.122;2022-09-02T05:24:19;15.79;66.03
67275;DHT22;55463;52.324;5.122;2022-09-02T05:26:44;15.91;65.51
67275;DHT22;55463;52.324;5.122;2022-09-02T05:29:10;15.98;65.98
67275;DHT22;55463;52.324;5.122;2022-09-02T05:31:36;15.93;66.04
67275;DHT22;55463;52.324;5.122;2022-09-02T05:34:03;16.01;65.88
67275;DHT22;55463;52.324;5.122;2022-09-02T05:36:29;16.00;66.01
67275;DHT22;55463;52.324;5.122;2022-09-02T05:38:57;16.11;65.82
67275;DHT22;55463;52.324;5.122;2022-09-02T05:41:23;16.18;66.20
67275;DHT22;55463;52.324;5.122;2022-09-02T05:43:51;16.08;66.70
67275;DHT22;55463;52.324;5.122;2022-09-02T05:46:18;16.10;66.34
67275;DHT22;55463;52.324;5.122;2022-09-02T05:48:45;16.17;65.55
67275;DHT22;55463;52.324;5.122;2022-09-02T05:51:30;16.14;64.73
67275;DHT22;55463;52.324;5.122;2022-09-02T05:53:57;16.17;64.12
67275;DHT22;55463;52.324;5.122;2022-09-02T05:56:23;16.15;65.33
67275;DHT22;55463;52.324;5.122;2022-09-02T05:58:50;16.20;65.63
67275;DHT22;55463;52.324;5.122;2022-09-02T06:01:17;16.20;65.33
67275;DHT22;55463;52.324;5.122;2022-09-02T06:03:42;16.31;65.45
67275;DHT22;55463;52.324;5.122;2022-09-02T06:06:08;16.38;65.64
67275;DHT22;55463;52.324;5.122;2022-09-02T06:08:34;16.46;65.18
67275;DHT22;55463;52.324;5.122;2022-09-02T06:11:00;16.41;65.59
67275;DHT22;55463;52.324;5.122;2022-09-02T06:13:28;16.49;65.58
67275;DHT22;55463;52.324;5.122;2022-09-02T06:15:54;16.57;65.46
67275;DHT22;55463;52.324;5.122;2022-09-02T06:18:19;16.69;64.77
67275;DHT22;55463;52.324;5.122;2022-09-02T06:20:46;16.72;64.95
67275;DHT22;55463;52.324;5.122;2022-09-02T06:23:13;16.73;64.54
67275;DHT22;55463;52.324;5.122;2022-09-02T06:25:40;16.81;64.88
67275;DHT22;55463;52.324;5.122;2022-09-02T06:28:06;16.87;64.10
67275;DHT22;55463;52.324;5.122;2022-09-02T06:30:32;17.01;64.25
67275;DHT22;55463;52.324;5.122;2022-09-02T06:32:58;17.03;63.97
67275;DHT22;55463;52.324;5.122;2022-09-02T06:35:23;16.99;63.74
67275;DHT22;55463;52.324;5.122;2022-09-02T06:37:49;17.08;63.01
67275;DHT22;55463;52.324;5.122;2022-09-02T06:40:15;17.11;63.20
67275;DHT22;55463;52.324;5.122;2022-09-02T06:42:43;17.20;62.44
67275;DHT22;55463;52.324;5.122;2022-09-02T06:45:08;17.31;63.21
67275;DHT22;55463;52.324;5.122;2022-09-02T06:47:34;17.31;62.62
67275;DHT22;55463;52.324;5.122;2022-09-02T06:50:00;17.29;62.47
67275;DHT22;55463;52.324;5.122;2022-09-02T06:52:25;17.43;62.29
67275;DHT22;55463;52.324;5.122;2022-09-02T06:54:51;17.36;62.62
67275;DHT22;55463;52.324;5.122;2022-09-02T06:57:17;17.52;62.46
67275;DHT22;55463;52.324;5.122;2022-09-02T06:59:42;17.46;61.99
67275;DHT22;55463;52.324;5.122;2022-09-02T07:02:07;17.93;60.71
67275;DHT22;55463;52.324;5.122;2022-09-02T07:04:33;18.42;60.03
67275;DHT22;55463;52.324;5.122;2022-09-02T07:07:17;18.90;58.18
67275;DHT22;55463;52.324;5.122;2022-09-02T07:09:42;18.94;57.48
67275;DHT22;55463;52.324;5.122;2022-09-02T07:12:08;19.07;57.23
67275;DHT22;55463;52.324;5.122;2022-09-02T07:14:38;19.15;57.20
67275;DHT22;55463;52.324;5.122;2022-09-02T07:17:04;19.35;56.75
67275;DHT22;55463;52.324;5.122;2022-09-02T07:19:30;19.45;56.10
67275;DHT22;55463;52.324;5.122;2022-09-02T07:21:55;19.53;56.24
67275;DHT22;55463;52.324;5.122;2022-09-02T07:24:22;19.63;56.25
67275;DHT22;55463;52.324;5.122;2022-09-02T07:26:48;19.80;55.84
67275;DHT22;55463;52.324;5.122;2022-09-02T07:29:14;19.83;55.38
67275;DHT22;55463;52.324;5.122;2022-09-02T07:31:43;19.94;55.13
67275;DHT22;55463;52.324;5.122;2022-09-02T07:34:09;20.34;54.50
67275;DHT22;55463;52.324;5.122;2022-09-02T07:36:35;20.66;53.75
67275;DHT22;55463;52.324;5.122;2022-09-02T07:39:03;20.75;53.51
67275;DHT22;55463;52.324;5.122;2022-09-02T07:41:28;20.28;54.42
67275;DHT22;55463;52.324;5.122;2022-09-02T07:43:54;19.90;55.50
67275;DHT22;55463;52.324;5.122;2022-09-02T07:46:20;19.76;56.57
67275;DHT22;55463;52.324;5.122;2022-09-02T07:48:46;19.94;56.81
67275;DHT22;55463;52.324;5.122;2022-09-02T07:51:16;20.25;55.89
67275;DHT22;55463;52.324;5.122;2022-09-02T07:53:41;20.45;55.40
67275;DHT22;55463;52.324;5.122;2022-09-02T07:56:08;20.63;54.38
67275;DHT22;55463;52.324;5.122;2022-09-02T07:58:34;20.88;54.20
67275;DHT22;55463;52.324;5.122;2022-09-02T08:00:59;20.98;53.46
67275;DHT22;55463;52.324;5.122;2022-09-02T08:03:25;20.98;53.89
67275;DHT22;55463;52.324;5.122;2022-09-02T08:05:51;21.12;54.05
67275;DHT22;55463;52.324;5.122;2022-09-02T08:08:18;21.58;53.25
67275;DHT22;55463;52.324;5.122;2022-09-02T08:10:48;21.80;52.69
67275;DHT22;55463;52.324;5.122;2022-09-02T08:13:14;21.75;53.25
67275;DHT22;55463;52.324;5.122;2022-09-02T08:15:39;22.03;52.83
67275;DHT22;55463;52.324;5.122;2022-09-02T08:18:05;21.94;52.61
67275;DHT22;55463;52.324;5.122;2022-09-02T08:20:31;21.86;53.25
67275;DHT22;55463;52.324;5.122;2022-09-02T08:22:57;22.14;53.05
67275;DHT22;55463;52.324;5.122;2022-09-02T08:25:23;22.20;52.73
67275;DHT22;55463;52.324;5.122;2022-09-02T08:27:48;22.37;52.63
67275;DHT22;55463;52.324;5.122;2022-09-02T08:30:14;22.52;53.00
67275;DHT22;55463;52.324;5.122;2022-09-02T08:32:40;22.82;51.90
67275;DHT22;55463;52.324;5.122;2022-09-02T08:35:08;23.04;51.19
67275;DHT22;55463;52.324;5.122;2022-09-02T08:37:34;22.83;51.05
67275;DHT22;55463;52.324;5.122;2022-09-02T08:40:00;23.00;50.59
67275;DHT22;55463;52.324;5.122;2022-09-02T08:45:17;23.32;49.89
67275;DHT22;55463;52.324;5.122;2022-09-02T08:47:46;23.06;49.99
67275;DHT22;55463;52.324;5.122;2022-09-02T08:50:18;23.32;50.63
67275;DHT22;55463;52.324;5.122;2022-09-02T08:53:02;23.34;50.08
67275;DHT22;55463;52.324;5.122;2022-09-02T08:55:40;23.42;49.67
67275;DHT22;55463;52.324;5.122;2022-09-02T08:58:07;23.55;49.78
67275;DHT22;55463;52.324;5.122;2022-09-02T09:00:38;23.52;49.29
67275;DHT22;55463;52.324;5.122;2022-09-02T09:03:28;23.45;50.40
67275;DHT22;55463;52.324;5.122;2022-09-02T09:06:15;23.15;49.88
67275;DHT22;55463;52.324;5.122;2022-09-02T09:08:59;23.31;51.13
67275;DHT22;55463;52.324;5.122;2022-09-02T09:11:40;23.18;50.39
67275;DHT22;55463;52.324;5.122;2022-09-02T09:14:19;23.07;50.67
67275;DHT22;55463;52.324;5.122;2022-09-02T09:16:57;23.00;50.48
67275;DHT22;55463;52.324;5.122;2022-09-02T09:19:30;23.27;50.83
67275;DHT22;55463;52.324;5.122;2022-09-02T09:21:57;23.24;49.83
67275;DHT22;55463;52.324;5.122;2022-09-02T09:24:34;23.21;50.07
67275;DHT22;55463;52.324;5.122;2022-09-02T09:27:02;23.12;49.90
67275;DHT22;55463;52.324;5.122;2022-09-02T09:29:31;23.37;50.81
67275;DHT22;55463;52.324;5.122;2022-09-02T09:31:58;23.46;49.29
67275;DHT22;55463;52.324;5.122;2022-09-02T09:39:52;23.63;49.77
67275;DHT22;55463;52.324;5.122;2022-09-02T09:42:29;23.89;49.37
67275;DHT22;55463;52.324;5.122;2022-09-02T09:44:55;23.82;48.83
67275;DHT22;55463;52.324;5.122;2022-09-02T09:47:22;23.87;48.93
67275;DHT22;55463;52.324;5.122;2022-09-02T09:49:51;24.31;49.60
67275;DHT22;55463;52.324;5.122;2022-09-02T09:52:25;24.63;48.59
67275;DHT22;55463;52.324;5.122;2022-09-02T09:55:11;24.35;47.77
67275;DHT22;55463;52.324;5.122;2022-09-02T09:57:41;24.69;47.84
67275;DHT22;55463;52.324;5.122;2022-09-02T10:00:34;24.77;47.27
67275;DHT22;55463;52.324;5.122;2022-09-02T10:03:04;24.79;48.28
67275;DHT22;55463;52.324;5.122;2022-09-02T10:05:38;24.87;47.30
67275;DHT22;55463;52.324;5.122;2022-09-02T10:08:18;25.10;48.04
67275;DHT22;55463;52.324;5.122;2022-09-02T10:10:56;24.96;48.08
67275;DHT22;55463;52.324;5.122;2022-09-02T10:13:30;25.18;49.24
67275;DHT22;55463;52.324;5.122;2022-09-02T10:16:07;25.49;48.87
67275;DHT22;55463;52.324;5.122;2022-09-02T10:18:53;25.80;46.92
67275;DHT22;55463;52.324;5.122;2022-09-02T10:26:57;26.08;44.72
67275;DHT22;55463;52.324;5.122;2022-09-02T10:29:51;26.30;45.27
67275;DHT22;55463;52.324;5.122;2022-09-02T10:32:23;26.21;45.26
67275;DHT22;55463;52.324;5.122;2022-09-02T10:35:10;26.37;44.71
67275;DHT22;55463;52.324;5.122;2022-09-02T10:40:35;26.83;45.02
67275;DHT22;55463;52.324;5.122;2022-09-02T10:43:15;27.03;43.94
67275;DHT22;55463;52.324;5.122;2022-09-02T10:45:57;27.08;44.30
67275;DHT22;55463;52.324;5.122;2022-09-02T10:48:32;27.27;43.97
67275;DHT22;55463;52.324;5.122;2022-09-02T10:54:08;27.42;43.45
67275;DHT22;55463;52.324;5.122;2022-09-02T10:57:08;27.52;42.88
67275;DHT22;55463;52.324;5.122;2022-09-02T10:59:46;27.44;42.17
67275;DHT22;55463;52.324;5.122;2022-09-02T11:05:08;27.59;43.50
67275;DHT22;55463;52.324;5.122;2022-09-02T11:10:15;27.15;43.30
67275;DHT22;55463;52.324;5.122;2022-09-02T11:13:01;27.27;43.21
67275;DHT22;55463;52.324;5.122;2022-09-02T11:15:52;27.15;43.13
67275;DHT22;55463;52.324;5.122;2022-09-02T11:18:26;27.07;44.14
67275;DHT22;55463;52.324;5.122;2022-09-02T11:21:01;26.95;43.37
67275;DHT22;55463;52.324;5.122;2022-09-02T11:23:48;27.04;43.51
67275;DHT22;55463;52.324;5.122;2022-09-02T11:26:23;27.54;43.90
67275;DHT22;55463;52.324;5.122;2022-09-02T11:29:00;27.59;42.59
67275;DHT22;55463;52.324;5.122;2022-09-02T11:31:41;27.66;41.64
67275;DHT22;55463;52.324;5.122;2022-09-02T11:37:03;27.76;42.68
67275;DHT22;55463;52.324;5.122;2022-09-02T11:53:41;28.12;41.68
67275;DHT22;55463;52.324;5.122;2022-09-02T11:56:12;28.34;41.98
67275;DHT22;55463;52.324;5.122;2022-09-02T11:58:44;28.43;41.28
67275;DHT22;55463;52.324;5.122;2022-09-02T12:01:22;28.41;41.96
67275;DHT22;55463;52.324;5.122;2022-09-02T12:03:57;28.14;42.07
67275;DHT22;55463;52.324;5.122;2022-09-02T12:06:24;28.38;42.28
67275;DHT22;55463;52.324;5.122;2022-09-02T12:14:09;28.49;41.15
67275;DHT22;55463;52.324;5.122;2022-09-02T12:16:42;28.23;41.27
67275;DHT22;55463;52.324;5.122;2022-09-02T12:21:35;28.79;41.33
67275;DHT22;55463;52.324;5.122;2022-09-02T12:24:07;28.43;40.66
67275;DHT22;55463;52.324;5.122;2022-09-02T12:31:50;28.74;40.11
67275;DHT22;55463;52.324;5.122;2022-09-02T12:36:52;28.06;40.63
67275;DHT22;55463;52.324;5.122;2022-09-02T12:41:57;27.47;42.25
67275;DHT22;55463;52.324;5.122;2022-09-02T12:44:30;26.82;42.87
67275;DHT22;55463;52.324;5.122;2022-09-02T12:50:04;26.52;42.51
67275;DHT22;55463;52.324;5.122;2022-09-02T12:55:28;27.23;41.42
67275;DHT22;55463;52.324;5.122;2022-09-02T12:58:10;27.70;40.29
67275;DHT22;55463;52.324;5.122;2022-09-02T13:00:56;27.29;40.56
67275;DHT22;55463;52.324;5.122;2022-09-02T13:03:38;26.69;40.57
67275;DHT22;55463;52.324;5.122;2022-09-02T13:14:34;26.72;42.77
67275;DHT22;55463;52.324;5.122;2022-09-02T13:17:34;27.37;40.17
67275;DHT22;55463;52.324;5.122;2022-09-02T13:20:42;27.79;39.33
67275;DHT22;55463;52.324;5.122;2022-09-02T13:26:34;28.28;37.75
67275;DHT22;55463;52.324;5.122;2022-09-02T13:34:40;28.71;37.10
67275;DHT22;55463;52.324;5.122;2022-09-02T13:39:53;28.68;36.02
67275;DHT22;55463;52.324;5.122;2022-09-02T13:42:23;28.55;37.13
67275;DHT22;55463;52.324;5.122;2022-09-02T13:44:48;28.58;36.74
67275;DHT22;55463;52.324;5.122;2022-09-02T13:47:16;28.43;36.99
67275;DHT22;55463;52.324;5.122;2022-09-02T13:49:47;27.76;37.72
67275;DHT22;55463;52.324;5.122;2022-09-02T13:52:20;27.11;39.05
67275;DHT22;55463;52.324;5.122;2022-09-02T13:54:50;26.73;39.73
67275;DHT22;55463;52.324;5.122;2022-09-02T13:57:21;26.45;40.51
67275;DHT22;55463;52.324;5.122;2022-09-02T13:59:52;26.10;41.16
67275;DHT22;55463;52.324;5.122;2022-09-02T14:02:33;26.00;41.86
67275;DHT22;55463;52.324;5.122;2022-09-02T14:05:12;26.14;42.40
67275;DHT22;55463;52.324;5.122;2022-09-02T14:07:43;26.17;41.76
67275;DHT22;55463;52.324;5.122;2022-09-02T14:10:11;26.13;42.25
67275;DHT22;55463;52.324;5.122;2022-09-02T14:12:39;26.01;42.07
67275;DHT22;55463;52.324;5.122;2022-09-02T14:15:07;25.85;42.01
67275;DHT22;55463;52.324;5.122;2022-09-02T14:17:33;25.70;42.92
67275;DHT22;55463;52.324;5.122;2022-09-02T14:20:19;25.63;43.33
67275;DHT22;55463;52.324;5.122;2022-09-02T14:22:52;25.57;43.15
67275;DHT22;55463;52.324;5.122;2022-09-02T14:25:18;25.88;41.92
67275;DHT22;55463;52.324;5.122;2022-09-02T14:27:49;26.30;42.03
67275;DHT22;55463;52.324;5.122;2022-09-02T14:30:37;26.71;41.90
67275;DHT22;55463;52.324;5.122;2022-09-02T14:36:06;27.54;40.40
67275;DHT22;55463;52.324;5.122;2022-09-02T14:41:26;27.94;38.94
67275;DHT22;55463;52.324;5.122;2022-09-02T14:43:57;28.02;38.87
67275;DHT22;55463;52.324;5.122;2022-09-02T14:49:19;27.94;38.43
67275;DHT22;55463;52.324;5.122;2022-09-02T14:51:49;28.14;39.41
67275;DHT22;55463;52.324;5.122;2022-09-02T14:54:38;28.14;38.56
67275;DHT22;55463;52.324;5.122;2022-09-02T14:57:06;28.17;38.20
67275;DHT22;55463;52.324;5.122;2022-09-02T14:59:43;28.16;38.05
67275;DHT22;55463;52.324;5.122;2022-09-02T15:02:28;28.20;37.81
67275;DHT22;55463;52.324;5.122;2022-09-02T15:04:55;28.25;37.57
67275;DHT22;55463;52.324;5.122;2022-09-02T15:07:21;28.18;36.98
67275;DHT22;55463;52.324;5.122;2022-09-02T15:09:46;28.30;38.16
67275;DHT22;55463;52.324;5.122;2022-09-02T15:12:16;28.33;38.12
67275;DHT22;55463;52.324;5.122;2022-09-02T15:14:44;28.43;38.70
67275;DHT22;55463;52.324;5.122;2022-09-02T15:17:12;28.25;38.18
67275;DHT22;55463;52.324;5.122;2022-09-02T15:19:37;28.18;39.45
67275;DHT22;55463;52.324;5.122;2022-09-02T15:22:03;28.37;41.22
67275;DHT22;55463;52.324;5.122;2022-09-02T15:24:28;28.38;39.30
67275;DHT22;55463;52.324;5.122;2022-09-02T15:26:54;28.31;37.08
67275;DHT22;55463;52.324;5.122;2022-09-02T15:29:19;28.25;37.69
67275;DHT22;55463;52.324;5.122;2022-09-02T15:31:45;28.25;38.15
67275;DHT22;55463;52.324;5.122;2022-09-02T15:34:10;28.24;37.98
67275;DHT22;55463;52.324;5.122;2022-09-02T15:36:36;28.23;38.26
67275;DHT22;55463;52.324;5.122;2022-09-02T15:39:02;28.03;36.56
67275;DHT22;55463;52.324;5.122;2022-09-02T15:41:28;27.88;37.17
67275;DHT22;55463;52.324;5.122;2022-09-02T15:43:56;27.52;39.47
67275;DHT22;55463;52.324;5.122;2022-09-02T15:46:26;27.59;39.03
67275;DHT22;55463;52.324;5.122;2022-09-02T15:48:52;27.54;38.21
67275;DHT22;55463;52.324;5.122;2022-09-02T15:51:20;27.59;38.98
67275;DHT22;55463;52.324;5.122;2022-09-02T15:53:45;27.38;39.75
67275;DHT22;55463;52.324;5.122;2022-09-02T15:56:21;27.57;39.66
67275;DHT22;55463;52.324;5.122;2022-09-02T15:58:53;27.79;38.35
67275;DHT22;55463;52.324;5.122;2022-09-02T16:01:19;27.75;36.83
67275;DHT22;55463;52.324;5.122;2022-09-02T16:03:45;27.75;37.21
67275;DHT22;55463;52.324;5.122;2022-09-02T16:06:10;27.83;37.10
67275;DHT22;55463;52.324;5.122;2022-09-02T16:08:37;27.78;36.55
67275;DHT22;55463;52.324;5.122;2022-09-02T16:11:06;27.73;37.65
67275;DHT22;55463;52.324;5.122;2022-09-02T16:13:33;27.75;37.87
67275;DHT22;55463;52.324;5.122;2022-09-02T16:16:03;27.72;38.83
67275;DHT22;55463;52.324;5.122;2022-09-02T16:18:29;27.61;38.10
67275;DHT22;55463;52.324;5.122;2022-09-02T16:20:54;27.42;38.39
67275;DHT22;55463;52.324;5.122;2022-09-02T16:23:20;27.21;38.97
67275;DHT22;55463;52.324;5.122;2022-09-02T16:25:45;27.00;39.98
67275;DHT22;55463;52.324;5.122;2022-09-02T16:28:10;26.79;40.53
67275;DHT22;55463;52.324;5.122;2022-09-02T16:30:36;26.61;40.83
67275;DHT22;55463;52.324;5.122;2022-09-02T16:33:02;26.38;41.90
67275;DHT22;55463;52.324;5.122;2022-09-02T16:35:27;26.14;42.58
67275;DHT22;55463;52.324;5.122;2022-09-02T16:37:52;25.92;43.18
67275;DHT22;55463;52.324;5.122;2022-09-02T16:40:21;25.69;43.31
67275;DHT22;55463;52.324;5.122;2022-09-02T16:42:46;25.55;43.50
67275;DHT22;55463;52.324;5.122;2022-09-02T16:45:12;25.51;43.33
67275;DHT22;55463;52.324;5.122;2022-09-02T16:47:37;25.42;43.63
67275;DHT22;55463;52.324;5.122;2022-09-02T16:50:03;25.27;44.06
67275;DHT22;55463;52.324;5.122;2022-09-02T16:52:28;25.08;44.90
67275;DHT22;55463;52.324;5.122;2022-09-02T16:54:56;25.06;45.16
67275;DHT22;55463;52.324;5.122;2022-09-02T16:57:21;25.00;45.92
67275;DHT22;55463;52.324;5.122;2022-09-02T16:59:47;24.94;46.57
67275;DHT22;55463;52.324;5.122;2022-09-02T17:02:13;24.77;46.43
67275;DHT22;55463;52.324;5.122;2022-09-02T17:04:38;24.73;47.62
67275;DHT22;55463;52.324;5.122;2022-09-02T17:07:04;24.65;47.68
67275;DHT22;55463;52.324;5.122;2022-09-02T17:09:29;24.58;47.93
67275;DHT22;55463;52.324;5.122;2022-09-02T17:11:55;24.37;48.16
67275;DHT22;55463;52.324;5.122;2022-09-02T17:14:20;24.35;48.55
67275;DHT22;55463;52.324;5.122;2022-09-02T17:16:48;24.25;49.32
67275;DHT22;55463;52.324;5.122;2022-09-02T17:19:15;24.24;48.98